Frankfort, MI

9:27 AM EST on November 14, 2019 (GMT -0500)
Frankfort

Weather History for KFKS - October, 2019

Change the Weather History Date:

Monday, October 21, 2019

  Actual Average (WUND) Record (WUND)
Temperature  
Mean Temperature 57 °F -  
Max Temperature 63 °F - - (-1)
Min Temperature 51 °F - - (-1)
Degree Days  
Heating Degree Days 8    
Growing Degree Days 7 (Base 50)    
Moisture  
Dew Point 48 °F    
Average Humidity 72    
Maximum Humidity 86    
Minimum Humidity 54    
Precipitation  
Precipitation 0.00 in - - ()
Sea Level Pressure  
Sea Level Pressure 29.68 in    
Wind  
Wind Speed 11 mph (ESE)    
Max Wind Speed 28 mph    
Max Gust Speed 44 mph    
Visibility 10 miles    
Events Rain    
Averages and records for this station are not official NWS values.
T = Trace of Precipitation, MM = Missing Value Source: NWS Daily Summary

Daily Weather History Graph

Daily Weather History Graph

Search for Another Location

Airport or City:

Astronomy

Oct. 21, 2019 Rise Set
Actual Time 8:07 AM EDT 6:50 PM EDT
Civil Twilight 7:37 AM EDT 7:20 PM EDT
Nautical Twilight 7:03 AM EDT 7:54 PM EDT
Astronomical Twilight 6:30 AM EDT 8:27 PM EDT
Moon No Moon Rise 3:33 PM EDT (10/21)
Length of Visible Light 11h 42m
Length of Day
10h 43m
Waning Gibbous, 48% of the Moon is Illuminated
Oct 21
Waning Gibbous
Oct 27
New
Nov 4
First Quarter
Nov 12
Full
Nov 19
Last Quarter

Hourly Weather History & Observations

Time (EDT) Temp. Dew Point Humidity Pressure Visibility Wind Dir Wind Speed Gust Speed Precip Events Conditions
12:15 AM 51.3 °F 47.1 °F 86% 29.96 in 10.0 mi East 8.1 mph - N/A   Clear
12:35 AM 52.0 °F 47.1 °F 83% 29.96 in 10.0 mi East 6.9 mph - N/A   Clear
12:36 AM 52.0 °F 46.9 °F 83% 29.96 in 10.0 mi East 8.1 mph - N/A   Clear
12:59 AM 52.7 °F 46.4 °F 79% 29.95 in 10.0 mi East 6.9 mph - N/A   Clear
1:16 AM 52.9 °F 46.4 °F 79% 29.95 in 10.0 mi East 6.9 mph - N/A   Clear
1:35 AM 53.1 °F 45.9 °F 77% 29.94 in 10.0 mi East 9.2 mph - N/A   Clear
1:36 AM 52.9 °F 45.9 °F 77% 29.94 in 10.0 mi East 10.4 mph - N/A   Clear
1:55 AM 52.9 °F 45.5 °F 76% 29.95 in 10.0 mi East 5.8 mph - N/A   Clear
1:56 AM 52.9 °F 45.5 °F 76% 29.95 in 10.0 mi East 5.8 mph - N/A   Clear
2:15 AM 52.7 °F 45.3 °F 76% 29.95 in 10.0 mi East 3.5 mph - N/A   Clear
2:38 AM 51.8 °F 45.0 °F 77% 29.95 in 10.0 mi East 3.5 mph - N/A   Clear
2:56 AM 51.8 °F 45.1 °F 78% 29.95 in 10.0 mi East 3.5 mph - N/A   Clear
3:15 AM 51.8 °F 45.0 °F 77% 29.94 in 10.0 mi East 5.8 mph - N/A   Clear
3:35 AM 51.8 °F 44.8 °F 77% 29.92 in 10.0 mi East 8.1 mph - N/A   Clear
3:59 AM 51.4 °F 44.6 °F 77% 29.93 in 10.0 mi East 6.9 mph - N/A   Clear
4:17 AM 52.0 °F 44.8 °F 76% 29.92 in 10.0 mi East 6.9 mph - N/A   Clear
4:35 AM 52.0 °F 45.0 °F 77% 29.92 in 10.0 mi East 6.9 mph - N/A   Clear
4:55 AM 52.5 °F 45.0 °F 75% 29.91 in 10.0 mi ESE 9.2 mph - N/A   Clear
5:15 AM 52.9 °F 44.8 °F 74% 29.91 in 10.0 mi SE 6.9 mph - N/A   Clear
5:19 AM 52.7 °F 44.8 °F 74% 29.91 in 10.0 mi SE 6.9 mph - N/A   Clear
5:38 AM 53.2 °F 44.8 °F 73% 29.90 in 10.0 mi SE 6.9 mph - N/A   Scattered Clouds
5:56 AM 53.6 °F 44.6 °F 72% 29.89 in 10.0 mi ESE 8.1 mph - N/A   Mostly Cloudy
6:15 AM 53.2 °F 44.6 °F 72% 29.88 in 10.0 mi ESE 8.1 mph - N/A   Overcast
6:35 AM 53.4 °F 44.6 °F 72% 29.88 in 10.0 mi East 9.2 mph - N/A   Overcast
6:36 AM 53.4 °F 44.6 °F 72% 29.88 in 10.0 mi East 10.4 mph - N/A   Overcast
6:59 AM 53.6 °F 44.4 °F 71% 29.87 in 10.0 mi ESE 9.2 mph 16.1 mph N/A   Overcast
7:17 AM 54.0 °F 43.9 °F 69% 29.86 in 10.0 mi ESE 11.5 mph 17.3 mph N/A   Mostly Cloudy
7:35 AM 54.0 °F 43.7 °F 68% 29.85 in 10.0 mi ESE 9.2 mph 16.1 mph N/A   Mostly Cloudy
7:55 AM 54.1 °F 43.2 °F 66% 29.84 in 10.0 mi ESE 13.8 mph 20.7 mph N/A   Scattered Clouds
7:56 AM 54.1 °F 43.2 °F 66% 29.84 in 10.0 mi ESE 11.5 mph 20.7 mph N/A   Scattered Clouds
8:15 AM 54.0 °F 43.2 °F 67% 29.82 in 10.0 mi East 11.5 mph 19.6 mph N/A   Clear
8:20 AM 54.1 °F 43.3 °F 67% 29.80 in 10.0 mi ESE 11.5 mph 19.6 mph N/A   Clear
8:38 AM 54.0 °F 43.2 °F 67% 29.79 in 10.0 mi East 13.8 mph 19.6 mph N/A   Clear
8:56 AM 54.0 °F 43.2 °F 67% 29.81 in 10.0 mi ESE 13.8 mph 18.4 mph N/A   Clear
9:15 AM 54.5 °F 43.3 °F 66% 29.81 in 10.0 mi East 10.4 mph 24.2 mph N/A   Scattered Clouds
9:35 AM 54.5 °F 43.5 °F 66% 29.80 in 10.0 mi ESE 15.0 mph 19.6 mph N/A   Mostly Cloudy
9:36 AM 54.5 °F 43.5 °F 66% 29.80 in 10.0 mi East 13.8 mph 19.6 mph N/A   Mostly Cloudy
9:58 AM 55.4 °F 43.3 °F 64% 29.78 in 10.0 mi ESE 12.7 mph 20.7 mph N/A   Scattered Clouds
10:17 AM 55.6 °F 43.2 °F 63% 29.78 in 10.0 mi ESE 10.4 mph 23.0 mph N/A   Overcast
10:35 AM 56.3 °F 43.3 °F 62% 29.77 in 10.0 mi ESE 15.0 mph 21.9 mph N/A   Overcast
10:55 AM 56.3 °F 43.7 °F 63% 29.76 in 10.0 mi ESE 12.7 mph 20.7 mph N/A   Overcast
10:56 AM 56.3 °F 43.7 °F 63% 29.76 in 10.0 mi ESE 15.0 mph 20.7 mph N/A   Overcast
11:15 AM 56.5 °F 44.2 °F 64% 29.73 in 10.0 mi East 13.8 mph 20.7 mph N/A   Overcast
11:20 AM 56.5 °F 44.6 °F 64% 29.73 in 10.0 mi East 12.7 mph 20.7 mph N/A   Mostly Cloudy
11:38 AM 56.5 °F 45.0 °F 65% 29.71 in 10.0 mi East 13.8 mph 23.0 mph N/A   Mostly Cloudy
11:56 AM 56.5 °F 45.0 °F 65% 29.68 in 10.0 mi East 13.8 mph 19.6 mph N/A   Scattered Clouds
12:15 PM 56.8 °F 45.5 °F 66% 29.64 in 10.0 mi East 16.1 mph 21.9 mph N/A   Scattered Clouds
12:35 PM 57.6 °F 45.7 °F 65% 29.62 in 10.0 mi East 17.3 mph 26.5 mph N/A   Scattered Clouds
12:36 PM 57.6 °F 45.7 °F 65% 29.62 in 10.0 mi East 17.3 mph 26.5 mph N/A   Scattered Clouds
12:59 PM 58.1 °F 46.4 °F 65% 29.60 in 10.0 mi ESE 15.0 mph 25.3 mph N/A   Mostly Cloudy
1:17 PM 59.0 °F 46.8 °F 64% 29.57 in 10.0 mi ESE 13.8 mph 24.2 mph N/A   Overcast
1:35 PM 59.9 °F 47.5 °F 64% 29.55 in 10.0 mi ESE 15.0 mph 21.9 mph N/A   Mostly Cloudy
1:55 PM 60.3 °F 49.1 °F 67% 29.52 in 7.0 mi ESE 17.3 mph 28.8 mph N/A Rain Light Rain
1:56 PM 60.3 °F 49.3 °F 67% 29.52 in 10.0 mi ESE 17.3 mph 28.8 mph N/A Rain Light Rain
2:15 PM 61.3 °F 50.4 °F 67% 29.48 in 10.0 mi ESE 19.6 mph 38.0 mph N/A Rain Light Rain
2:38 PM 63.1 °F 51.4 °F 66% 29.48 in 10.0 mi SE 27.6 mph 43.7 mph N/A   Overcast
2:56 PM 63.1 °F 51.4 °F 66% 29.47 in 10.0 mi SE 24.2 mph 42.6 mph N/A   Overcast
3:15 PM 62.8 °F 52.0 °F 68% 29.47 in 10.0 mi SE 20.7 mph 34.5 mph N/A Rain Light Rain
3:16 PM 62.8 °F 52.0 °F 68% 29.47 in 10.0 mi SE 24.2 mph 32.2 mph N/A Rain Light Rain
3:36 PM 61.7 °F 53.2 °F 74% 29.47 in 4.0 mi SE 20.7 mph 33.4 mph N/A Rain Rain
3:59 PM 61.2 °F 54.0 °F 77% 29.47 in 5.0 mi SE 16.1 mph 27.6 mph N/A Rain Light Rain
4:17 PM 61.2 °F 54.5 °F 79% 29.45 in 7.0 mi SE 13.8 mph 28.8 mph N/A Rain Light Rain
4:36 PM 61.2 °F 54.7 °F 79% 29.45 in 7.0 mi SE 16.1 mph 26.5 mph N/A   Overcast
4:55 PM 61.0 °F 55.2 °F 81% 29.44 in 3.0 mi SE 17.3 mph 31.1 mph N/A Rain Light Rain
5:15 PM 61.2 °F 55.4 °F 81% 29.44 in 7.0 mi SE 15.0 mph 25.3 mph N/A Rain Light Rain
5:20 PM 61.2 °F 55.6 °F 82% 29.44 in 7.0 mi SE 16.1 mph 25.3 mph N/A Rain Light Rain
5:38 PM 61.2 °F 55.6 °F 82% 29.44 in 4.0 mi SE 13.8 mph 24.2 mph N/A Rain Light Rain
5:56 PM 61.7 °F 55.8 °F 81% 29.43 in 10.0 mi SE 15.0 mph 24.2 mph N/A Rain Rain
6:15 PM 61.7 °F 55.8 °F 81% 29.44 in 7.0 mi SSE 20.7 mph 25.3 mph N/A Rain Light Rain
6:35 PM 61.7 °F 55.9 °F 81% 29.44 in 7.0 mi SSE 11.5 mph 19.6 mph N/A Rain Light Rain
6:59 PM 61.7 °F 55.9 °F 81% 29.44 in 10.0 mi SE 10.4 mph 20.7 mph N/A   Overcast
7:17 PM 61.7 °F 55.8 °F 81% 29.43 in 10.0 mi SE 11.5 mph 19.6 mph N/A   Scattered Clouds
7:35 PM 61.7 °F 55.8 °F 81% 29.43 in 10.0 mi SSE 10.4 mph - N/A   Scattered Clouds
7:55 PM 61.9 °F 56.1 °F 81% 29.44 in 10.0 mi SSE 9.2 mph 19.6 mph N/A   Scattered Clouds
8:15 PM 61.9 °F 56.1 °F 81% 29.44 in 10.0 mi SSE 11.5 mph - N/A   Scattered Clouds
8:20 PM 62.1 °F 56.1 °F 81% 29.44 in 10.0 mi SSE 13.8 mph 18.4 mph N/A   Scattered Clouds
8:38 PM 61.9 °F 56.1 °F 81% 29.43 in 10.0 mi SSE 13.8 mph 17.3 mph N/A   Scattered Clouds
8:56 PM 62.4 °F 56.3 °F 80% 29.44 in 10.0 mi SSE 11.5 mph 19.6 mph N/A   Overcast
9:15 PM 62.2 °F 55.9 °F 80% 29.44 in 10.0 mi South 12.7 mph 23.0 mph N/A   Mostly Cloudy
9:35 PM 62.2 °F 55.4 °F 78% 29.45 in 10.0 mi SSE 10.4 mph 20.7 mph N/A   Scattered Clouds
9:59 PM 61.5 °F 49.1 °F 64% 29.45 in 10.0 mi South 17.3 mph 31.1 mph N/A   Clear
10:17 PM 60.1 °F 46.6 °F 61% 29.46 in 10.0 mi South 13.8 mph 21.9 mph N/A   Clear
10:35 PM 59.2 °F 45.5 °F 60% 29.46 in 10.0 mi South 15.0 mph 21.9 mph N/A   Clear
10:55 PM 58.3 °F 45.3 °F 62% 29.46 in 10.0 mi South 10.4 mph 19.6 mph N/A   Clear
11:15 PM 58.1 °F 43.2 °F 58% 29.46 in 10.0 mi South 12.7 mph - N/A   Clear
11:20 PM 58.3 °F 42.4 °F 56% 29.46 in 10.0 mi South 13.8 mph 18.4 mph N/A   Clear
11:38 PM 58.5 °F 41.9 °F 54% 29.46 in 10.0 mi South 12.7 mph 23.0 mph N/A   Scattered Clouds
11:56 PM 58.1 °F 43.3 °F 58% 29.47 in 10.0 mi South 12.7 mph 24.2 mph N/A   Mostly Cloudy